Time;durP1;ratioP1;P1;durP2;ratioP2;P2;SDS_P1;SDS_P2;PMS_P1;PMS_P2;Temp;Humidity;BMP_temperature;BMP_pressure;BME280_temperature;BME280_humidity;BME280_pressure;Samples;Min_cycle;Max_cycle;Signal;HPM_P1;HPM_P2
2023/08/16 00:01:24;;;;;;;5.93;3.30;;;22.40;97.20;;;;;;5052971;28;20539;-67
2023/08/16 00:03:50;;;;;;;6.47;4.60;;;22.40;97.30;;;;;;5053051;28;20056;-66
2023/08/16 00:06:15;;;;;;;6.97;4.40;;;22.40;97.40;;;;;;5051282;28;20029;-66
2023/08/16 00:08:41;;;;;;;6.90;4.32;;;22.40;97.40;;;;;;5052832;28;20489;-67
2023/08/16 00:11:07;;;;;;;7.45;4.65;;;22.40;97.50;;;;;;5052998;28;20120;-66
2023/08/16 00:13:33;;;;;;;8.93;4.70;;;22.30;97.80;;;;;;5052899;28;20378;-66
2023/08/16 00:16:01;;;;;;;6.32;4.05;;;22.30;97.60;;;;;;5050906;28;20017;-66
2023/08/16 00:18:27;;;;;;;8.52;4.60;;;22.30;97.60;;;;;;5053086;28;20036;-66
2023/08/16 00:20:53;;;;;;;8.65;4.43;;;22.30;97.60;;;;;;5052684;28;20389;-66
2023/08/16 00:23:18;;;;;;;5.75;4.50;;;22.30;97.70;;;;;;5050939;28;20021;-67
2023/08/16 00:25:44;;;;;;;8.38;4.50;;;22.30;97.80;;;;;;5052809;28;20428;-69
2023/08/16 00:28:10;;;;;;;6.97;4.38;;;22.30;97.80;;;;;;5054983;28;20033;-67
2023/08/16 00:30:35;;;;;;;8.18;4.80;;;22.30;97.70;;;;;;5056192;28;20544;-70
2023/08/16 00:33:01;;;;;;;9.20;4.55;;;22.30;97.70;;;;;;5055237;28;20032;-68
2023/08/16 00:35:26;;;;;;;6.90;4.47;;;22.20;97.80;;;;;;5056723;28;20096;-67
2023/08/16 00:37:52;;;;;;;5.82;4.18;;;22.20;97.80;;;;;;5056574;28;20443;-73
2023/08/16 00:40:19;;;;;;;6.32;4.60;;;22.20;97.90;;;;;;5056533;28;20029;-71
2023/08/16 00:42:45;;;;;;;8.73;4.63;;;22.20;97.90;;;;;;5056552;28;20029;-67
2023/08/16 00:45:11;;;;;;;7.15;4.68;;;22.20;97.90;;;;;;5056534;28;20116;-69
2023/08/16 00:47:36;;;;;;;8.07;4.70;;;22.20;98.00;;;;;;5054278;28;20025;-70
2023/08/16 00:50:03;;;;;;;9.23;4.97;;;22.20;98.00;;;;;;5055178;28;20067;-67
2023/08/16 00:52:29;;;;;;;8.95;5.57;;;22.20;98.10;;;;;;5056155;28;20103;-67
2023/08/16 00:54:56;;;;;;;8.27;5.05;;;22.20;98.20;;;;;;5056236;28;20033;-69
2023/08/16 00:57:22;;;;;;;7.60;4.97;;;22.20;98.20;;;;;;5055034;28;20020;-66
2023/08/16 00:59:47;;;;;;;8.25;5.05;;;22.20;98.20;;;;;;5056168;28;20152;-66
2023/08/16 01:02:14;;;;;;;7.97;4.82;;;22.20;98.20;;;;;;5054433;28;20044;-67
2023/08/16 01:04:41;;;;;;;7.30;4.82;;;22.10;98.30;;;;;;5055663;28;20025;-66
2023/08/16 01:07:07;;;;;;;10.00;5.25;;;22.10;98.30;;;;;;5055096;28;20055;-67
2023/08/16 01:09:33;;;;;;;7.60;5.38;;;22.10;98.30;;;;;;5056238;28;20459;-67
2023/08/16 01:12:10;;;;;;;7.88;5.53;;;22.10;98.30;;;;;;5055859;28;20021;-68
2023/08/16 01:14:49;;;;;;;6.68;4.82;;;22.10;98.40;;;;;;5056138;28;20486;-69
2023/08/16 01:17:16;;;;;;;9.13;5.60;;;22.00;98.40;;;;;;5053467;28;20423;-70
2023/08/16 01:19:42;;;;;;;8.93;5.55;;;22.00;98.40;;;;;;5054520;28;20653;-68
2023/08/16 01:22:11;;;;;;;8.50;5.28;;;22.10;98.50;;;;;;5055499;28;20065;-69
2023/08/16 01:25:09;;;;;;;9.93;6.55;;;22.00;98.50;;;;;;5055911;28;20021;-71
2023/08/16 01:27:35;;;;;;;9.40;6.00;;;22.10;98.50;;;;;;5054541;28;20036;-68
2023/08/16 01:30:06;;;;;;;7.43;6.43;;;21.90;98.60;;;;;;5055881;28;20021;-68
2023/08/16 01:32:32;;;;;;;12.98;7.15;;;21.90;98.60;;;;;;5055764;28;20025;-69
2023/08/16 01:34:58;;;;;;;7.30;5.70;;;21.90;98.60;;;;;;5055282;28;20025;-68
2023/08/16 01:37:24;;;;;;;9.13;7.00;;;21.90;98.70;;;;;;5055557;28;20025;-71
2023/08/16 01:39:51;;;;;;;7.03;6.07;;;21.90;98.70;;;;;;5055056;28;20115;-69
2023/08/16 01:42:17;;;;;;;8.90;6.40;;;21.90;98.80;;;;;;5052946;28;20033;-68
2023/08/16 01:44:49;;;;;;;8.75;6.78;;;21.90;98.80;;;;;;5035542;28;20109;-68
2023/08/16 01:47:15;;;;;;;7.05;5.70;;;21.90;98.80;;;;;;5035218;28;20022;-68
2023/08/16 01:49:42;;;;;;;10.05;5.90;;;21.90;98.80;;;;;;5035066;28;20041;-68
2023/08/16 01:52:08;;;;;;;7.30;5.95;;;21.80;98.80;;;;;;5035242;28;20026;-68
2023/08/16 01:54:34;;;;;;;8.73;6.13;;;21.80;98.80;;;;;;5035430;28;20363;-66
2023/08/16 01:57:00;;;;;;;12.88;7.00;;;21.80;98.90;;;;;;5036229;28;20513;-66
2023/08/16 01:59:25;;;;;;;8.45;6.88;;;21.80;99.00;;;;;;5054584;28;20115;-67
2023/08/16 02:01:51;;;;;;;10.88;6.93;;;21.70;99.00;;;;;;5053538;28;20033;-65
2023/08/16 02:04:17;;;;;;;9.23;6.90;;;21.70;99.10;;;;;;5054542;28;20021;-66
2023/08/16 02:06:43;;;;;;;12.60;7.05;;;21.70;99.10;;;;;;5054783;28;20025;-66
2023/08/16 02:09:09;;;;;;;9.15;6.57;;;21.70;99.10;;;;;;5054847;28;20029;-66
2023/08/16 02:11:35;;;;;;;8.80;7.10;;;21.70;99.20;;;;;;5054816;28;20033;-65
2023/08/16 02:14:00;;;;;;;10.65;7.50;;;21.70;99.20;;;;;;5053875;28;20382;-66
2023/08/16 02:16:26;;;;;;;9.30;7.65;;;21.60;99.20;;;;;;5053938;28;20025;-66
2023/08/16 02:18:51;;;;;;;12.30;7.53;;;21.70;99.30;;;;;;5053389;28;20013;-66
2023/08/16 02:21:17;;;;;;;9.43;7.63;;;21.60;99.30;;;;;;5054755;28;20055;-66
2023/08/16 02:23:43;;;;;;;10.80;7.72;;;21.60;99.40;;;;;;5054570;28;20033;-66
2023/08/16 02:26:09;;;;;;;9.57;7.95;;;21.60;99.40;;;;;;5054591;28;20025;-66
2023/08/16 02:28:34;;;;;;;8.65;7.75;;;21.60;99.50;;;;;;5054598;28;20116;-66
2023/08/16 02:31:06;;;;;;;10.35;8.07;;;21.60;99.50;;;;;;5053039;28;20108;-69
2023/08/16 02:33:33;;;;;;;10.85;8.10;;;21.60;99.50;;;;;;5054306;28;20025;-68
2023/08/16 02:35:59;;;;;;;8.75;7.65;;;21.50;99.50;;;;;;5054419;28;20523;-69
2023/08/16 02:38:24;;;;;;;10.45;8.05;;;21.60;99.60;;;;;;5054273;28;20021;-68
2023/08/16 02:40:50;;;;;;;11.50;8.65;;;21.50;99.60;;;;;;5054357;28;20525;-68
2023/08/16 02:43:16;;;;;;;11.02;7.80;;;21.50;99.70;;;;;;5054258;28;20386;-68
2023/08/16 02:45:43;;;;;;;10.57;9.30;;;21.60;99.70;;;;;;5053311;28;20025;-68
2023/08/16 02:48:08;;;;;;;11.38;8.10;;;21.50;99.80;;;;;;5053727;28;20044;-68
2023/08/16 02:50:34;;;;;;;9.95;7.53;;;21.50;99.80;;;;;;5053292;28;20018;-68
2023/08/16 02:53:00;;;;;;;10.40;8.57;;;21.40;99.90;;;;;;5052743;28;20024;-68
2023/08/16 02:55:25;;;;;;;10.63;8.82;;;21.50;99.90;;;;;;5052005;28;20496;-68
2023/08/16 02:57:52;;;;;;;11.85;8.60;;;21.50;99.90;;;;;;5054305;28;20119;-68
2023/08/16 03:00:18;;;;;;;10.68;8.90;;;21.40;99.90;;;;;;5054028;28;20036;-68
2023/08/16 03:02:44;;;;;;;10.77;8.88;;;21.40;99.90;;;;;;5053594;28;20041;-68
2023/08/16 03:05:10;;;;;;;10.23;8.13;;;21.40;99.90;;;;;;5053822;28;20107;-68
2023/08/16 03:07:36;;;;;;;9.77;8.43;;;21.40;99.90;;;;;;5052928;28;20377;-68
2023/08/16 03:10:02;;;;;;;12.68;8.88;;;21.40;99.90;;;;;;5053967;28;20463;-68
2023/08/16 03:12:28;;;;;;;11.60;9.20;;;21.40;99.90;;;;;;5053370;28;20494;-69
2023/08/16 03:14:54;;;;;;;11.18;9.23;;;21.30;99.90;;;;;;5053578;28;20025;-68
2023/08/16 03:17:19;;;;;;;10.30;8.43;;;21.30;99.90;;;;;;5051455;28;20520;-68
2023/08/16 03:19:45;;;;;;;12.48;8.25;;;21.30;99.90;;;;;;5053361;28;20032;-68
2023/08/16 03:22:10;;;;;;;11.20;9.52;;;21.30;99.90;;;;;;5052288;28;20033;-68
2023/08/16 03:24:36;;;;;;;11.85;9.52;;;21.30;99.90;;;;;;5053471;28;20062;-68
2023/08/16 03:27:02;;;;;;;10.88;9.25;;;21.30;99.90;;;;;;5053493;28;20079;-68
2023/08/16 03:29:28;;;;;;;12.57;9.80;;;21.30;99.90;;;;;;5053215;28;20466;-68
2023/08/16 03:31:54;;;;;;;12.05;9.75;;;21.30;99.90;;;;;;5053324;28;20029;-68
2023/08/16 03:34:19;;;;;;;13.02;10.80;;;21.30;99.90;;;;;;5053280;28;20411;-68
2023/08/16 03:36:45;;;;;;;10.93;9.90;;;21.30;99.90;;;;;;5052122;28;20438;-68
2023/08/16 03:39:11;;;;;;;14.57;10.60;;;21.20;99.90;;;;;;5053259;28;20493;-68
2023/08/16 03:41:37;;;;;;;12.23;10.40;;;21.20;99.90;;;;;;5053444;28;20040;-69
2023/08/16 03:44:04;;;;;;;12.57;11.27;;;21.20;99.90;;;;;;5053366;28;20115;-68
2023/08/16 03:46:29;;;;;;;11.90;10.00;;;21.10;99.90;;;;;;5051664;28;20107;-69
2023/08/16 03:48:55;;;;;;;11.60;9.98;;;21.20;99.90;;;;;;5052343;28;20072;-69
2023/08/16 03:51:21;;;;;;;10.52;9.48;;;21.10;99.90;;;;;;5053030;28;20039;-69
2023/08/16 03:53:46;;;;;;;10.68;9.27;;;21.20;99.90;;;;;;5053090;28;20100;-68
2023/08/16 03:56:12;;;;;;;12.15;9.63;;;21.20;99.90;;;;;;5053042;28;20086;-68
2023/08/16 03:58:38;;;;;;;11.25;9.65;;;21.20;99.90;;;;;;5052946;28;20039;-68
2023/08/16 04:01:03;;;;;;;10.70;9.52;;;21.10;99.90;;;;;;5052591;28;20366;-69
2023/08/16 04:03:29;;;;;;;13.65;9.50;;;21.10;99.90;;;;;;5053073;28;20055;-70
2023/08/16 04:05:54;;;;;;;12.55;9.38;;;21.10;99.90;;;;;;5044604;28;20009;-68
2023/08/16 04:08:20;;;;;;;12.15;10.07;;;21.10;99.90;;;;;;5049866;28;20024;-68
2023/08/16 04:10:45;;;;;;;10.63;9.52;;;21.10;99.90;;;;;;5052927;28;20029;-69
2023/08/16 04:13:11;;;;;;;11.75;10.25;;;21.10;99.90;;;;;;5053001;28;20513;-68
2023/08/16 04:15:37;;;;;;;10.95;9.75;;;21.10;99.90;;;;;;5052483;28;20029;-68
2023/08/16 04:18:03;;;;;;;13.23;9.18;;;21.10;99.90;;;;;;5053117;28;20029;-69
2023/08/16 04:20:28;;;;;;;11.15;9.75;;;21.00;99.90;;;;;;5052403;28;20045;-69
2023/08/16 04:22:54;;;;;;;12.07;10.80;;;21.00;99.90;;;;;;5048570;28;20120;-69
2023/08/16 04:25:19;;;;;;;13.10;11.23;;;21.00;99.90;;;;;;5048674;28;20013;-69
2023/08/16 04:27:45;;;;;;;11.25;9.63;;;21.00;99.90;;;;;;5052062;28;20036;-72
2023/08/16 04:30:11;;;;;;;13.05;9.85;;;21.00;99.90;;;;;;5052402;28;20033;-66
2023/08/16 04:32:36;;;;;;;11.70;10.55;;;21.00;99.90;;;;;;5052842;28;20556;-71
2023/08/16 04:35:03;;;;;;;12.82;11.52;;;21.00;99.90;;;;;;5052581;28;20021;-68
2023/08/16 04:37:28;;;;;;;12.85;11.23;;;21.00;99.90;;;;;;5052681;28;20067;-72
2023/08/16 04:39:54;;;;;;;12.70;10.80;;;21.00;99.90;;;;;;5049519;28;20028;-68
2023/08/16 04:42:20;;;;;;;14.35;11.60;;;20.90;99.90;;;;;;5051901;28;20545;-68
2023/08/16 04:44:45;;;;;;;11.35;10.25;;;21.00;99.90;;;;;;5052283;28;20475;-69
2023/08/16 04:47:11;;;;;;;16.40;12.45;;;21.00;99.90;;;;;;5052800;28;20028;-69
2023/08/16 04:49:37;;;;;;;15.82;12.38;;;21.00;99.90;;;;;;5051281;28;20497;-73
2023/08/16 04:52:03;;;;;;;14.93;11.95;;;21.00;99.90;;;;;;5050329;28;20116;-69
2023/08/16 04:54:28;;;;;;;15.60;12.60;;;20.90;99.90;;;;;;5052756;28;20067;-68
2023/08/16 04:56:54;;;;;;;13.73;12.32;;;20.90;99.90;;;;;;5051748;28;20032;-68
2023/08/16 04:59:20;;;;;;;14.95;12.43;;;20.90;99.90;;;;;;5050751;28;20029;-69
2023/08/16 05:01:45;;;;;;;12.40;11.15;;;20.90;99.90;;;;;;5049189;28;20036;-69
2023/08/16 05:04:11;;;;;;;16.45;12.55;;;20.90;99.90;;;;;;5044592;28;20032;-69
2023/08/16 05:06:37;;;;;;;14.10;12.65;;;21.00;99.90;;;;;;5051197;28;20029;-68
2023/08/16 05:09:03;;;;;;;17.17;12.18;;;21.00;99.90;;;;;;5051288;28;20078;-70
2023/08/16 05:11:30;;;;;;;16.73;11.88;;;21.00;99.90;;;;;;5048504;28;20371;-66
2023/08/16 05:13:55;;;;;;;16.52;12.57;;;21.00;99.90;;;;;;5052791;28;20028;-66
2023/08/16 05:16:21;;;;;;;15.57;13.93;;;21.00;99.90;;;;;;5055830;28;20029;-66
2023/08/16 05:18:46;;;;;;;16.17;13.07;;;20.90;99.90;;;;;;5055943;28;20036;-66
2023/08/16 05:21:12;;;;;;;20.75;14.63;;;20.90;99.90;;;;;;5055764;28;20048;-68
2023/08/16 05:23:38;;;;;;;15.60;13.23;;;20.90;99.90;;;;;;5055882;28;20063;-68
2023/08/16 05:26:03;;;;;;;13.73;12.20;;;20.90;99.90;;;;;;5055189;28;20025;-68
2023/08/16 05:28:29;;;;;;;13.50;12.13;;;21.00;99.90;;;;;;5055764;28;20029;-68
2023/08/16 05:30:55;;;;;;;15.65;12.32;;;21.00;99.90;;;;;;5055656;28;20056;-68
2023/08/16 05:33:21;;;;;;;16.42;12.98;;;21.00;99.90;;;;;;5055726;28;20031;-68
2023/08/16 05:35:46;;;;;;;15.48;12.25;;;21.00;99.90;;;;;;5055373;28;20021;-68
2023/08/16 05:38:12;;;;;;;15.85;12.05;;;21.00;99.90;;;;;;5055649;28;20457;-71
2023/08/16 05:40:37;;;;;;;15.13;12.02;;;21.00;99.90;;;;;;5055118;28;20033;-78
2023/08/16 05:43:03;;;;;;;14.00;12.30;;;21.00;99.90;;;;;;5055361;28;20033;-69
2023/08/16 05:45:31;;;;;;;15.95;12.02;;;21.00;99.90;;;;;;5055470;28;20029;-67
2023/08/16 05:47:56;;;;;;;14.73;12.27;;;21.00;99.90;;;;;;5055251;28;20021;-67
2023/08/16 05:50:23;;;;;;;15.93;12.23;;;21.00;99.90;;;;;;5055456;28;20033;-68
2023/08/16 05:52:48;;;;;;;16.02;12.07;;;21.00;99.90;;;;;;5055231;28;20029;-68
2023/08/16 05:55:14;;;;;;;19.23;12.32;;;21.00;99.90;;;;;;5055012;28;20025;-69
2023/08/16 05:57:40;;;;;;;14.07;12.10;;;21.00;99.90;;;;;;5055270;28;20033;-71
2023/08/16 06:00:06;;;;;;;17.05;12.50;;;21.00;99.90;;;;;;5055259;28;20052;-68
2023/08/16 06:02:32;;;;;;;15.27;12.50;;;21.00;99.90;;;;;;5054851;28;20044;-68
2023/08/16 06:04:59;;;;;;;16.52;13.15;;;21.00;99.90;;;;;;5055216;28;20017;-68
2023/08/16 06:07:25;;;;;;;14.88;12.18;;;21.00;99.90;;;;;;5054856;28;20029;-68
2023/08/16 06:09:51;;;;;;;17.10;11.13;;;21.10;99.90;;;;;;5054774;28;20025;-68
2023/08/16 06:12:17;;;;;;;13.35;11.25;;;21.10;99.90;;;;;;5055071;28;20086;-68
2023/08/16 06:14:43;;;;;;;13.43;11.95;;;21.10;99.90;;;;;;5055114;28;20512;-68
2023/08/16 06:17:08;;;;;;;14.18;11.73;;;21.10;99.90;;;;;;5054743;28;20363;-69
2023/08/16 06:19:34;;;;;;;19.95;11.32;;;21.10;99.90;;;;;;5053484;28;20478;-68
2023/08/16 06:22:00;;;;;;;14.98;10.95;;;21.10;99.90;;;;;;5054785;28;20060;-68
2023/08/16 06:24:25;;;;;;;14.35;11.07;;;21.10;99.90;;;;;;5054503;28;20101;-68
2023/08/16 06:26:51;;;;;;;12.27;11.00;;;21.20;99.90;;;;;;5054542;28;20410;-68
2023/08/16 06:29:17;;;;;;;16.10;10.93;;;21.20;99.90;;;;;;5054607;28;20108;-70
2023/08/16 06:31:42;;;;;;;12.15;10.20;;;21.20;99.90;;;;;;5054586;28;20028;-68
2023/08/16 06:34:08;;;;;;;13.60;10.15;;;21.20;99.90;;;;;;5054439;28;20524;-68
2023/08/16 06:36:33;;;;;;;15.73;11.40;;;21.20;99.90;;;;;;5054480;28;20036;-68
2023/08/16 06:38:59;;;;;;;15.20;11.05;;;21.20;99.90;;;;;;5054150;28;20017;-77
2023/08/16 06:41:25;;;;;;;17.25;10.60;;;21.20;99.90;;;;;;5054469;28;20355;-68
2023/08/16 06:43:50;;;;;;;13.32;10.57;;;21.20;99.90;;;;;;5054252;28;20071;-68
2023/08/16 06:46:16;;;;;;;16.42;10.98;;;21.30;99.90;;;;;;5054281;28;20367;-68
2023/08/16 06:48:42;;;;;;;12.18;10.73;;;21.30;99.90;;;;;;5054046;28;20036;-68
2023/08/16 06:51:07;;;;;;;14.55;10.98;;;21.40;99.90;;;;;;5054122;28;20104;-72
2023/08/16 06:53:33;;;;;;;15.13;10.27;;;21.30;99.90;;;;;;5053817;28;20032;-68
2023/08/16 06:55:59;;;;;;;14.05;9.85;;;21.30;99.90;;;;;;5054003;28;20017;-69
2023/08/16 06:58:25;;;;;;;15.15;10.02;;;21.40;99.90;;;;;;5054301;28;20052;-68
2023/08/16 07:00:50;;;;;;;13.27;9.90;;;21.40;99.90;;;;;;5052631;28;20017;-68
2023/08/16 07:03:19;;;;;;;13.93;9.15;;;21.40;99.90;;;;;;5053996;28;20146;-68
2023/08/16 07:05:45;;;;;;;14.52;9.25;;;21.40;99.90;;;;;;5052714;28;20025;-70
2023/08/16 07:08:11;;;;;;;15.13;9.10;;;21.40;99.90;;;;;;5053512;28;20032;-68
2023/08/16 07:10:37;;;;;;;14.70;8.85;;;21.50;99.90;;;;;;5053802;28;20024;-68
2023/08/16 07:13:03;;;;;;;12.73;9.27;;;21.50;99.90;;;;;;5053972;28;20100;-68
2023/08/16 07:15:29;;;;;;;10.82;7.65;;;21.50;99.90;;;;;;5053751;28;20405;-68
2023/08/16 07:17:55;;;;;;;8.80;7.90;;;21.60;99.90;;;;;;5053625;28;20021;-68
2023/08/16 07:20:21;;;;;;;10.02;7.75;;;21.60;99.90;;;;;;5053836;28;20024;-69
2023/08/16 07:22:46;;;;;;;12.98;7.22;;;21.60;99.90;;;;;;5053229;28;20393;-70
2023/08/16 07:25:12;;;;;;;10.68;6.47;;;21.60;99.90;;;;;;5053545;28;20025;-68
2023/08/16 07:27:39;;;;;;;9.77;5.78;;;21.60;99.60;;;;;;5053504;28;20473;-68
2023/08/16 07:30:05;;;;;;;7.35;5.18;;;21.60;99.40;;;;;;5053394;28;20021;-72
2023/08/16 07:32:31;;;;;;;7.65;6.10;;;21.70;99.00;;;;;;5053559;28;20064;-68
2023/08/16 07:34:57;;;;;;;7.78;6.45;;;21.60;98.80;;;;;;5052006;28;20086;-68
2023/08/16 07:37:23;;;;;;;9.63;6.00;;;21.70;98.90;;;;;;5052686;28;20063;-68
2023/08/16 07:39:49;;;;;;;7.70;5.68;;;21.70;99.00;;;;;;5053261;28;20512;-69
2023/08/16 07:42:18;;;;;;;8.57;6.43;;;21.70;98.90;;;;;;5053362;28;20028;-68
2023/08/16 07:44:44;;;;;;;7.63;6.10;;;21.70;98.90;;;;;;5053284;28;20020;-68
2023/08/16 07:47:11;;;;;;;10.05;5.85;;;21.70;98.90;;;;;;5053446;28;20032;-69
2023/08/16 07:49:36;;;;;;;10.13;6.35;;;21.70;99.00;;;;;;5053051;28;20398;-68
2023/08/16 07:52:02;;;;;;;8.57;6.05;;;21.70;99.10;;;;;;5052960;28;20036;-68
2023/08/16 07:54:28;;;;;;;9.43;6.43;;;21.80;99.10;;;;;;5053115;28;20489;-69
2023/08/16 07:56:53;;;;;;;8.88;6.97;;;21.80;99.30;;;;;;5053198;28;20021;-68
2023/08/16 07:59:19;;;;;;;12.93;7.55;;;21.80;99.30;;;;;;5053040;28;20028;-69
2023/08/16 08:01:45;;;;;;;10.38;7.18;;;21.90;99.30;;;;;;5052849;28;20043;-68
2023/08/16 08:04:11;;;;;;;11.85;7.93;;;21.90;99.10;;;;;;5052904;28;20021;-68
2023/08/16 08:06:36;;;;;;;12.45;7.53;;;22.00;99.00;;;;;;5052734;28;20021;-68
2023/08/16 08:09:03;;;;;;;11.40;7.93;;;22.00;99.00;;;;;;5053012;28;20024;-69
2023/08/16 08:11:29;;;;;;;11.55;8.90;;;22.00;98.90;;;;;;5053098;28;20021;-68
2023/08/16 08:13:54;;;;;;;17.63;9.18;;;22.00;98.60;;;;;;5052884;28;20036;-69
2023/08/16 08:16:20;;;;;;;13.68;8.80;;;22.10;98.60;;;;;;5052797;28;20045;-68
2023/08/16 08:18:46;;;;;;;12.55;9.45;;;22.10;98.60;;;;;;5052955;28;20036;-68
2023/08/16 08:21:12;;;;;;;12.00;9.40;;;22.10;98.60;;;;;;5052505;28;20090;-68
2023/08/16 08:23:37;;;;;;;13.77;9.40;;;22.10;98.70;;;;;;5052899;28;20030;-68
2023/08/16 08:26:03;;;;;;;11.90;8.18;;;22.10;98.60;;;;;;5052593;28;20420;-68
2023/08/16 08:28:29;;;;;;;14.27;8.27;;;22.20;98.60;;;;;;5052864;28;20032;-68
2023/08/16 08:30:54;;;;;;;10.90;7.45;;;22.20;98.60;;;;;;5052779;28;20436;-69
2023/08/16 08:33:20;;;;;;;13.60;8.00;;;22.20;98.30;;;;;;5052821;28;20021;-69
2023/08/16 08:35:46;;;;;;;9.07;7.10;;;22.20;98.30;;;;;;5050947;28;20119;-69
2023/08/16 08:38:12;;;;;;;8.20;6.78;;;22.30;98.30;;;;;;5052719;28;20021;-69
2023/08/16 08:40:38;;;;;;;7.97;5.20;;;22.30;98.20;;;;;;5052688;28;20414;-68
2023/08/16 08:43:06;;;;;;;8.60;4.00;;;22.30;98.00;;;;;;5052689;28;20581;-69
2023/08/16 08:45:32;;;;;;;10.25;3.58;;;22.30;97.10;;;;;;5052577;28;20025;-69
2023/08/16 08:47:59;;;;;;;3.85;2.65;;;22.40;96.40;;;;;;5052512;28;20520;-68
2023/08/16 08:50:27;;;;;;;4.68;2.70;;;22.40;95.90;;;;;;5055988;28;20375;-69
2023/08/16 08:52:56;;;;;;;7.47;2.83;;;22.40;95.70;;;;;;5056607;28;20025;-69
2023/08/16 08:55:22;;;;;;;7.20;2.85;;;22.50;95.70;;;;;;5056287;28;20091;-68
2023/08/16 08:57:50;;;;;;;5.32;2.22;;;22.50;95.50;;;;;;5056341;28;20029;-69
2023/08/16 09:00:19;;;;;;;5.68;2.70;;;22.50;95.40;;;;;;5056223;28;20025;-69
2023/08/16 09:02:49;;;;;;;6.18;2.65;;;22.50;95.40;;;;;;5056181;28;20037;-69
2023/08/16 09:05:18;;;;;;;5.80;2.75;;;22.60;95.90;;;;;;5055984;28;20024;-73
2023/08/16 09:07:44;;;;;;;6.95;3.08;;;22.60;96.00;;;;;;5055460;28;20062;-69
2023/08/16 09:10:12;;;;;;;9.13;3.55;;;22.60;96.10;;;;;;5065206;28;20015;-70
2023/08/16 09:12:37;;;;;;;6.82;3.40;;;22.60;95.90;;;;;;5073998;28;20035;-70
2023/08/16 09:15:04;;;;;;;6.95;4.20;;;22.70;96.00;;;;;;5061589;28;20017;-69
2023/08/16 09:17:29;;;;;;;7.50;3.92;;;22.70;96.10;;;;;;5075413;28;20628;-69
2023/08/16 09:19:58;;;;;;;5.38;3.63;;;22.70;96.20;;;;;;5066791;28;20032;-67
2023/08/16 09:22:24;;;;;;;9.43;4.50;;;22.70;96.50;;;;;;5054343;28;20370;-68
2023/08/16 09:24:55;;;;;;;7.35;3.95;;;22.70;96.60;;;;;;5055174;28;20461;-68
2023/08/16 09:27:22;;;;;;;7.55;5.28;;;22.80;96.70;;;;;;5054918;28;20021;-68
2023/08/16 09:29:49;;;;;;;7.93;4.32;;;22.80;96.60;;;;;;5054895;28;20029;-69
2023/08/16 09:32:15;;;;;;;9.93;5.13;;;22.80;96.70;;;;;;5054369;28;20083;-68
2023/08/16 09:34:40;;;;;;;10.88;4.72;;;22.90;96.90;;;;;;5054465;28;20401;-67
2023/08/16 09:37:06;;;;;;;7.10;4.50;;;22.90;97.10;;;;;;5054901;28;20532;-67
2023/08/16 09:39:31;;;;;;;10.93;5.65;;;22.90;97.30;;;;;;5054715;28;20440;-67
2023/08/16 09:41:59;;;;;;;8.40;4.65;;;22.90;97.20;;;;;;5054228;28;20485;-68
2023/08/16 09:44:29;;;;;;;14.00;5.63;;;22.90;97.20;;;;;;5055063;28;20078;-67
2023/08/16 09:46:57;;;;;;;11.40;4.40;;;23.00;97.20;;;;;;5054640;28;20039;-68
2023/08/16 09:49:23;;;;;;;10.55;5.15;;;23.00;97.40;;;;;;5054192;28;20040;-68
2023/08/16 09:51:50;;;;;;;7.80;4.90;;;23.00;97.40;;;;;;5052628;28;20401;-68
2023/08/16 09:54:17;;;;;;;10.18;5.57;;;23.00;97.50;;;;;;5054147;28;20548;-69
2023/08/16 09:56:44;;;;;;;9.70;5.70;;;23.10;97.50;;;;;;5054218;28;20151;-68
2023/08/16 09:59:11;;;;;;;8.50;4.75;;;23.10;97.50;;;;;;5053653;28;20013;-73
2023/08/16 10:01:37;;;;;;;10.30;4.65;;;23.10;97.60;;;;;;5053617;28;20505;-72
2023/08/16 10:04:04;;;;;;;7.88;4.97;;;23.10;97.80;;;;;;5054310;28;20021;-68
2023/08/16 10:06:33;;;;;;;6.65;4.53;;;23.20;97.50;;;;;;5054087;28;20022;-68
2023/08/16 10:09:02;;;;;;;6.63;3.50;;;23.20;97.40;;;;;;5053998;28;20032;-69
2023/08/16 10:11:28;;;;;;;8.10;4.28;;;23.20;97.70;;;;;;5053592;28;20025;-69
2023/08/16 10:13:54;;;;;;;8.18;4.97;;;23.20;97.80;;;;;;5054010;28;20031;-70
2023/08/16 10:16:23;;;;;;;8.55;4.28;;;23.30;97.40;;;;;;5053902;28;20588;-68
2023/08/16 10:18:51;;;;;;;7.18;2.78;;;23.30;97.40;;;;;;5053930;28;20497;-68
2023/08/16 10:21:17;;;;;;;7.00;3.65;;;23.30;97.20;;;;;;5053573;28;20064;-68
2023/08/16 10:23:44;;;;;;;6.97;3.92;;;23.30;97.10;;;;;;5053799;28;20031;-69
2023/08/16 10:26:15;;;;;;;6.28;4.80;;;23.30;97.10;;;;;;5053470;28;20021;-68
2023/08/16 10:28:52;;;;;;;6.80;3.70;;;23.30;97.10;;;;;;5053821;28;20541;-68
2023/08/16 10:31:22;;;;;;;7.43;3.80;;;23.30;97.10;;;;;;5053175;28;20032;-68
2023/08/16 10:33:52;;;;;;;8.50;3.40;;;23.30;97.00;;;;;;5053643;28;20029;-68
2023/08/16 10:36:18;;;;;;;6.25;3.20;;;23.30;96.60;;;;;;5053660;28;20025;-68
2023/08/16 10:38:44;;;;;;;8.15;3.05;;;23.40;96.30;;;;;;5053746;28;20025;-68
2023/08/16 10:41:14;;;;;;;5.35;2.75;;;23.40;96.40;;;;;;5053360;28;20036;-68
2023/08/16 10:43:53;;;;;;;6.43;2.58;;;23.40;96.80;;;;;;5050613;28;20489;-69
2023/08/16 10:46:35;;;;;;;5.03;3.38;;;23.40;96.70;;;;;;5038276;28;20018;-68
2023/08/16 10:49:05;;;;;;;6.32;3.95;;;23.40;96.80;;;;;;5046916;28;20029;-70
2023/08/16 10:51:45;;;;;;;7.32;4.03;;;23.50;96.80;;;;;;5046059;28;20056;-69
2023/08/16 10:54:11;;;;;;;5.90;3.17;;;23.50;96.80;;;;;;5033493;28;20043;-69
2023/08/16 10:56:43;;;;;;;7.43;3.92;;;23.50;96.80;;;;;;5033634;28;20454;-69
2023/08/16 10:59:11;;;;;;;9.52;4.10;;;23.50;96.90;;;;;;5033127;28;20021;-70
2023/08/16 11:01:48;;;;;;;10.18;4.85;;;23.50;97.30;;;;;;5032397;28;20509;-69
2023/08/16 11:04:14;;;;;;;9.10;4.13;;;23.50;97.20;;;;;;5033128;28;20018;-72
2023/08/16 11:06:40;;;;;;;7.20;3.80;;;23.60;97.20;;;;;;5046992;28;20470;-69
2023/08/16 11:09:09;;;;;;;6.32;3.70;;;23.60;96.90;;;;;;5052979;28;20029;-68
2023/08/16 11:11:35;;;;;;;6.78;3.53;;;23.60;96.70;;;;;;5052022;28;20025;-74
2023/08/16 11:14:02;;;;;;;7.55;3.42;;;23.60;96.70;;;;;;5052923;28;20029;-72
2023/08/16 11:16:28;;;;;;;8.35;3.38;;;23.60;96.80;;;;;;5052797;28;20036;-69
2023/08/16 11:18:59;;;;;;;7.35;3.55;;;23.60;97.00;;;;;;5051335;28;20033;-69
2023/08/16 11:21:25;;;;;;;5.10;2.30;;;23.70;96.70;;;;;;5032439;28;20025;-73
2023/08/16 11:23:53;;;;;;;4.18;2.40;;;23.60;96.70;;;;;;5032999;28;20026;-69
2023/08/16 11:26:19;;;;;;;5.20;3.13;;;23.70;96.80;;;;;;5032536;28;20586;-70
2023/08/16 11:28:45;;;;;;;4.30;2.90;;;23.70;96.70;;;;;;5032583;28;20108;-73
2023/08/16 11:31:11;;;;;;;3.85;2.95;;;23.70;96.60;;;;;;5032191;28;20033;-69
2023/08/16 11:33:40;;;;;;;4.18;2.00;;;23.70;96.50;;;;;;5032784;28;20033;-67
2023/08/16 11:36:12;;;;;;;6.35;2.60;;;23.80;96.60;;;;;;5032667;28;20021;-69
2023/08/16 11:38:41;;;;;;;8.25;2.85;;;23.90;95.80;;;;;;5032806;28;20076;-68
2023/08/16 11:41:07;;;;;;;4.82;2.17;;;23.90;95.70;;;;;;5032308;28;20534;-68
2023/08/16 11:43:34;;;;;;;4.20;1.92;;;24.00;95.50;;;;;;5032176;28;20113;-67
2023/08/16 11:46:02;;;;;;;3.75;1.90;;;24.00;95.40;;;;;;5032594;28;20045;-67
2023/08/16 11:48:30;;;;;;;5.22;3.03;;;24.00;95.40;;;;;;5032467;28;20036;-68
2023/08/16 11:50:57;;;;;;;6.57;2.80;;;24.00;95.40;;;;;;5032132;28;20034;-69
2023/08/16 11:53:31;;;;;;;5.38;1.90;;;24.00;95.30;;;;;;5032342;28;20021;-70
2023/08/16 11:56:02;;;;;;;6.00;2.47;;;24.00;95.20;;;;;;5049047;28;20115;-67
2023/08/16 11:58:28;;;;;;;4.50;2.38;;;24.00;95.30;;;;;;5052182;28;20115;-68
2023/08/16 12:01:04;;;;;;;4.75;2.20;;;24.00;95.30;;;;;;5051936;28;20059;-67
2023/08/16 12:03:35;;;;;;;4.20;1.60;;;24.00;95.10;;;;;;5051878;28;20417;-68
2023/08/16 12:06:05;;;;;;;5.55;1.75;;;24.10;95.10;;;;;;5051819;28;20049;-68
2023/08/16 12:08:31;;;;;;;3.90;2.47;;;24.10;95.30;;;;;;5052368;28;20470;-68
2023/08/16 12:10:57;;;;;;;9.18;3.30;;;24.10;95.20;;;;;;5051896;28;20025;-67
2023/08/16 12:13:23;;;;;;;4.13;2.53;;;24.10;95.10;;;;;;5051875;28;20535;-77
2023/08/16 12:15:50;;;;;;;5.43;2.28;;;24.10;95.10;;;;;;5052438;28;20074;-74
2023/08/16 12:18:20;;;;;;;4.85;2.28;;;24.10;95.20;;;;;;5052145;28;20021;-71
2023/08/16 12:20:52;;;;;;;5.55;2.60;;;24.10;95.30;;;;;;5051952;28;20505;-70
2023/08/16 12:23:20;;;;;;;5.10;2.60;;;24.10;95.30;;;;;;5054028;28;20036;-68
2023/08/16 12:25:46;;;;;;;6.10;2.78;;;24.10;95.30;;;;;;5056488;28;20017;-68
2023/08/16 12:28:11;;;;;;;4.47;2.40;;;24.10;95.30;;;;;;5055910;28;20048;-69
2023/08/16 12:30:37;;;;;;;7.53;2.80;;;24.20;95.20;;;;;;5056105;28;20382;-67
2023/08/16 12:33:06;;;;;;;3.58;2.13;;;24.20;95.20;;;;;;5055682;28;20044;-67
2023/08/16 12:35:33;;;;;;;5.35;2.25;;;24.20;95.10;;;;;;5055421;28;20497;-68
2023/08/16 12:37:59;;;;;;;6.05;2.15;;;24.20;95.20;;;;;;5056399;28;20071;-68